ADDS METAR Data INFO
IDs: Format: Raw Decoded Include TAF

Data at: 1236 UTC 25 Jul 2017

KILE 251156Z AUTO 17005KT 9SM CLR 24/23 A3007 RMK AO2 SLP185 6//// 7//// T02440228 10250 20244 53012 PNO $
KILE 251056Z AUTO 16007KT 9SM FEW021 24/23 A3006 RMK AO2 SLP181 T02440228 PNO $
KILE 250956Z AUTO 16006KT 10SM OVC019 24/23 A3005 RMK AO2 SLP177 T02440228 PNO $
KILE 250913Z AUTO 18006KT 10SM BKN017 24/23 A3004 RMK AO2 PNO $
KILE 250856Z AUTO 18007KT 10SM FEW017 24/23 A3004 RMK AO2 SLP172 6//// T02440228 53004 PNO $
KILE 250756Z AUTO 16007KT 10SM CLR 25/22 A3003 RMK AO2 SLP170 T02500222 PNO $
KILE 250656Z AUTO 17007KT 10SM CLR 25/22 A3003 RMK AO2 SLP170 T02500217 PNO $
KILE 250556Z AUTO 16010KT 10SM CLR 26/22 A3003 RMK AO2 SLP168 6//// T02560217 10317 20256 403390228 51018 PNO $
KILE 250456Z AUTO 14007KT 10SM CLR 26/21 A3001 RMK AO2 SLP162 T02610211 PNO $
KILE 250356Z AUTO 13006KT 10SM CLR 27/21 A3000 RMK AO2 SLP160 T02670211 PNO $
KILE 250256Z AUTO 11005KT 10SM CLR 27/22 A2997 RMK AO2 SLP150 6//// T02720217 53005 PNO $
KILE 250156Z AUTO 11005KT 10SM FEW002 28/21 A2996 RMK AO2 SLP147 T02830211 PNO $
KILE 250143Z AUTO 11004KT 10SM FEW002 29/21 A2995 RMK AO2 PNO $
KILE 250056Z AUTO 15007KT 10SM CLR 31/21 A2995 RMK AO2 SLP144 T03060206 PNO $
KILE 242356Z AUTO 18005KT 10SM FEW100 32/21 A2995 RMK AO2 SLP145 6//// T03170211 10339 20272 58001 PNO $
KILE 242256Z AUTO 15007KT 10SM CLR 31/21 A2996 RMK AO2 SLP149 T03110211 PNO $
KILE 242156Z AUTO 16009KT 10SM SCT043 OVC060 29/22 A2996 RMK AO2 LTG DSNT E TSB13E50 SLP148 T02940217 PNO $
KILE 242124Z AUTO 18014G20KT 10SM VCTS BKN041 29/22 A2997 RMK AO2 LTG DSNT S TSB13 PNO $
KILE 242056Z AUTO VRB06KT 9SM CLR 33/23 A2996 RMK AO2 LTG DSNT S AND SW SLP144 6//// T03330233 58017 PNO $
KILE 241956Z AUTO VRB05KT 10SM CLR 31/23 A2998 RMK AO2 LTG DSNT SE-SW SLP152 T03110233 PNO $
KILE 241856Z AUTO 33005KT 10SM CLR 31/24 A2999 RMK AO2 LTG DSNT SW AND W SLP158 T03110239 PNO $
KILE 241756Z AUTO VRB04KT 10SM CLR 31/23 A3001 RMK AO2 SLP163 6//// T03110233 10311 20228 50003 PNO $
KILE 241656Z AUTO 28005KT 10SM CLR 30/23 A3001 RMK AO2 SLP165 T03000233 PNO $
KILE 241635Z AUTO 23006KT 10SM FEW023 29/23 A3000 RMK AO2 PNO $
KILE 241610Z AUTO 19010KT 10SM BKN021 29/23 A3000 RMK AO2 PNO $
KILE 241556Z AUTO 22007KT 10SM SCT019 29/23 A3000 RMK AO2 SLP159 T02890233 PNO $
KILE 241456Z AUTO 20011KT 10SM CLR 28/24 A3000 RMK AO2 SLP160 6//// T02780239 51008 PNO $
KILE 241356Z AUTO 19008KT 10SM CLR 26/23 A3000 RMK AO2 SLP161 T02610228 PNO $
KILE 241256Z AUTO 17003KT 10SM CLR 25/22 A2999 RMK AO2 SLP156 T02500217 PNO $
KILE 241056Z AUTO 00000KT 10SM CLR 23/21 A2996 RMK AO2 SLP149 T02330211 PNO $
KILE 240956Z AUTO 22004KT 10SM FEW047 24/21 A2996 RMK AO2 SLP143 T02390206 PNO $
KILE 240856Z AUTO 00000KT 10SM SCT050 BKN060 24/21 A2995 RMK AO2 SLP140 6//// T02440211 58004 PNO $
KILE 240756Z AUTO 34005KT 10SM SCT055 BKN120 24/21 A2997 RMK AO2 SLP146 T02440211 PNO $
KILE 240656Z AUTO 24005KT 10SM CLR 24/20 A2995 RMK AO2 SLP144 T02440200 PNO $
KILE 240556Z AUTO 18004KT 10SM CLR 24/21 A2996 RMK AO2 SLP148 6//// T02440211 10294 20244 403720244 53016 PNO $
KILE 240456Z AUTO 00000KT 10SM CLR 26/22 A2994 RMK AO2 SLP138 T02560217 PNO $
KILE 240356Z AUTO 26004KT 10SM CLR 26/22 A2992 RMK AO2 SLP132 T02610217 PNO $
KILE 240256Z AUTO 19003KT 10SM CLR 27/22 A2991 RMK AO2 SLP130 6//// T02670217 53015 PNO $
KILE 240156Z AUTO 19005KT 10SM CLR 27/22 A2990 RMK AO2 SLP126 T02720217 PNO $
KILE 240056Z AUTO 25005KT 10SM FEW001 29/22 A2987 RMK AO2 SLP116 T02940217 PNO $